createdAt,value
2018-08-08T00:01:43.807Z,18.70
2018-08-08T00:04:13.315Z,18.60
2018-08-08T00:06:43.545Z,18.60
2018-08-08T00:09:13.270Z,18.70
2018-08-08T00:11:43.221Z,18.60
2018-08-08T00:14:12.937Z,18.60
2018-08-08T00:16:42.711Z,18.60
2018-08-08T00:19:12.404Z,18.50
2018-08-08T00:21:42.087Z,18.50
2018-08-08T00:24:11.718Z,18.50
2018-08-08T00:26:42.543Z,18.50
2018-08-08T00:29:12.770Z,18.40
2018-08-08T00:31:43.020Z,18.40
2018-08-08T00:34:12.711Z,18.40
2018-08-08T00:36:42.723Z,18.40
2018-08-08T00:39:12.810Z,18.40
2018-08-08T00:41:42.426Z,18.40
2018-08-08T00:44:12.823Z,18.30
2018-08-08T00:46:42.604Z,18.30
2018-08-08T00:49:12.370Z,18.30
2018-08-08T00:51:42.166Z,18.30
2018-08-08T00:54:11.842Z,18.30
2018-08-08T00:56:41.528Z,18.30
2018-08-08T00:59:11.174Z,18.30
2018-08-08T01:01:40.775Z,18.30
2018-08-08T01:04:10.666Z,18.30
2018-08-08T01:06:40.552Z,18.30
2018-08-08T01:09:10.616Z,18.30
2018-08-08T01:11:40.538Z,18.20
2018-08-08T01:14:10.147Z,18.30
2018-08-08T01:16:40.297Z,18.20
2018-08-08T01:19:09.872Z,18.20
2018-08-08T01:21:39.728Z,18.20
2018-08-08T01:24:09.506Z,18.20
2018-08-08T01:26:39.253Z,18.20
2018-08-08T01:29:09.037Z,18.20
2018-08-08T01:31:38.675Z,18.10
2018-08-08T01:34:09.025Z,18.10
2018-08-08T01:36:38.563Z,18.10
2018-08-08T01:39:10.405Z,18.10
2018-08-08T01:41:40.028Z,18.10
2018-08-08T01:44:09.841Z,18.10
2018-08-08T01:46:39.559Z,18.10
2018-08-08T01:49:09.197Z,18.10
2018-08-08T01:51:39.201Z,18.10
2018-08-08T01:54:08.875Z,18.10
2018-08-08T01:56:38.573Z,18.10
2018-08-08T01:59:08.160Z,18.10
2018-08-08T02:01:37.907Z,18.10
2018-08-08T02:04:08.762Z,18.00
2018-08-08T02:06:40.138Z,18.00
2018-08-08T02:09:11.806Z,18.00
2018-08-08T02:11:42.080Z,18.00
2018-08-08T02:14:12.452Z,18.00
2018-08-08T02:16:42.230Z,18.00
2018-08-08T02:19:11.902Z,18.00
2018-08-08T02:21:41.426Z,18.00
2018-08-08T02:24:11.055Z,18.00
2018-08-08T02:26:40.656Z,18.00
2018-08-08T02:29:11.279Z,18.00
2018-08-08T02:31:41.847Z,18.00
2018-08-08T02:34:11.474Z,18.00
2018-08-08T02:36:41.053Z,18.00
2018-08-08T02:39:13.201Z,18.00
2018-08-08T02:41:42.819Z,17.90
2018-08-08T02:44:13.313Z,17.90
2018-08-08T02:46:42.962Z,17.90
2018-08-08T02:49:12.840Z,17.90
2018-08-08T02:51:42.423Z,17.80
2018-08-08T02:54:12.060Z,17.80
2018-08-08T02:56:41.964Z,17.80
2018-08-08T02:59:13.145Z,17.80
2018-08-08T03:01:42.752Z,17.70
2018-08-08T03:04:12.546Z,17.70
2018-08-08T03:06:42.468Z,17.70
2018-08-08T03:09:12.698Z,17.70
2018-08-08T03:11:42.434Z,17.70
2018-08-08T03:14:12.130Z,17.70
2018-08-08T03:16:41.980Z,17.70
2018-08-08T03:19:11.642Z,17.70
2018-08-08T03:21:41.637Z,17.60
2018-08-08T03:24:11.898Z,17.60
2018-08-08T03:26:42.210Z,17.60
2018-08-08T03:29:12.385Z,17.60
2018-08-08T03:31:42.040Z,17.70
2018-08-08T03:34:11.978Z,17.70
2018-08-08T03:36:42.549Z,17.70
2018-08-08T03:39:12.132Z,17.70
2018-08-08T03:41:42.307Z,17.70
2018-08-08T03:44:11.932Z,17.70
2018-08-08T03:46:42.868Z,17.70
2018-08-08T03:49:12.572Z,17.70
2018-08-08T03:51:42.231Z,17.60
2018-08-08T03:54:11.771Z,17.60
2018-08-08T03:56:42.504Z,17.60
2018-08-08T03:59:12.347Z,17.50
2018-08-08T04:01:43.206Z,17.50
2018-08-08T04:04:13.161Z,17.50
2018-08-08T04:06:42.895Z,17.50
2018-08-08T04:09:12.972Z,17.40
2018-08-08T04:11:42.728Z,17.40
2018-08-08T04:14:12.893Z,17.40
2018-08-08T04:16:42.393Z,17.40
2018-08-08T04:19:12.181Z,17.50
2018-08-08T04:21:42.217Z,17.40
2018-08-08T04:24:11.776Z,17.40
2018-08-08T04:26:41.297Z,17.50
2018-08-08T04:29:10.881Z,17.50
2018-08-08T04:31:40.581Z,17.50
2018-08-08T04:34:10.008Z,17.50
2018-08-08T04:36:39.565Z,17.50
2018-08-08T04:39:10.734Z,17.50
2018-08-08T04:41:40.343Z,17.50
2018-08-08T04:44:10.056Z,17.50
2018-08-08T04:46:39.715Z,17.50
2018-08-08T04:49:11.906Z,17.60
2018-08-08T04:51:41.718Z,17.60
2018-08-08T04:54:11.982Z,17.60
2018-08-08T04:56:41.671Z,17.70
2018-08-08T04:59:11.572Z,17.70
2018-08-08T05:01:43.424Z,17.70
2018-08-08T05:04:17.324Z,17.80
2018-08-08T05:06:47.072Z,17.80
2018-08-08T05:09:17.716Z,17.90
2018-08-08T05:11:47.560Z,17.90
2018-08-08T05:14:20.512Z,17.90
2018-08-08T05:16:51.561Z,18.00
2018-08-08T05:19:21.350Z,18.00
2018-08-08T05:21:51.169Z,18.10
2018-08-08T05:24:20.794Z,18.10
2018-08-08T05:26:51.003Z,18.20
2018-08-08T05:29:20.929Z,18.30
2018-08-08T05:31:50.721Z,18.30
2018-08-08T05:34:20.521Z,18.40
2018-08-08T05:36:50.447Z,18.40
2018-08-08T05:39:24.922Z,18.50
2018-08-08T05:41:54.660Z,18.60
2018-08-08T05:44:24.359Z,18.70
2018-08-08T05:46:54.155Z,18.70
2018-08-08T05:49:23.823Z,18.80
2018-08-08T05:51:53.396Z,18.90
2018-08-08T05:54:24.326Z,19.00
2018-08-08T05:56:54.100Z,19.10
2018-08-08T05:59:24.037Z,19.20
2018-08-08T06:01:54.719Z,19.30
2018-08-08T06:04:24.631Z,19.40
2018-08-08T06:06:54.237Z,19.50
2018-08-08T06:09:24.007Z,19.70
2018-08-08T06:11:53.820Z,19.80
2018-08-08T06:14:23.478Z,20.00
2018-08-08T06:16:53.836Z,20.20
2018-08-08T06:19:23.706Z,20.50
2018-08-08T06:21:53.240Z,20.80
2018-08-08T06:24:22.937Z,21.20
2018-08-08T06:26:52.709Z,21.50
2018-08-08T06:29:22.564Z,21.80
2018-08-08T06:31:52.098Z,22.10
2018-08-08T06:34:21.802Z,22.30
2018-08-08T06:36:51.613Z,22.50
2018-08-08T06:39:21.196Z,22.70
2018-08-08T06:41:50.689Z,22.90
2018-08-08T06:44:20.349Z,23.00
2018-08-08T06:46:50.671Z,23.20
2018-08-08T06:49:20.378Z,23.30
2018-08-08T06:51:50.088Z,23.50
2018-08-08T06:54:19.789Z,23.60
2018-08-08T06:56:49.284Z,23.80
2018-08-08T06:59:19.773Z,23.90
2018-08-08T07:01:49.470Z,24.00
2018-08-08T07:04:19.545Z,24.20
2018-08-08T07:06:50.351Z,24.20
2018-08-08T07:09:19.897Z,24.30
2018-08-08T07:11:50.592Z,24.40
2018-08-08T07:14:20.340Z,24.40
2018-08-08T07:16:50.668Z,24.40
2018-08-08T07:19:20.170Z,24.50
2018-08-08T07:21:49.932Z,24.50
2018-08-08T07:24:19.699Z,24.60
2018-08-08T07:26:49.212Z,24.70
2018-08-08T07:29:19.526Z,24.80
2018-08-08T07:31:49.886Z,24.90
2018-08-08T07:34:19.572Z,25.10
2018-08-08T07:36:49.184Z,25.20
2018-08-08T07:39:19.834Z,25.30
2018-08-08T07:41:49.620Z,25.40
2018-08-08T07:44:19.928Z,25.40
2018-08-08T07:46:50.771Z,25.40
2018-08-08T07:49:20.656Z,25.40
2018-08-08T07:51:50.187Z,25.50
2018-08-08T07:54:20.265Z,25.50
2018-08-08T07:56:51.665Z,25.50
2018-08-08T07:59:21.657Z,25.50
2018-08-08T08:01:51.162Z,25.60
2018-08-08T08:04:21.132Z,25.60
2018-08-08T08:06:51.724Z,25.70
2018-08-08T08:09:22.014Z,25.70
2018-08-08T08:11:51.447Z,25.70
2018-08-08T08:14:21.420Z,25.80
2018-08-08T08:16:51.405Z,25.80
2018-08-08T08:19:20.886Z,25.90
2018-08-08T08:21:50.745Z,25.90
2018-08-08T08:24:20.704Z,25.90
2018-08-08T08:26:51.208Z,25.90
2018-08-08T08:29:20.780Z,26.00
2018-08-08T08:31:50.782Z,26.00
2018-08-08T08:34:20.266Z,26.00
2018-08-08T08:36:50.124Z,26.10
2018-08-08T08:39:21.729Z,26.10
2018-08-08T08:41:51.370Z,26.10
2018-08-08T08:44:21.330Z,26.10
2018-08-08T08:46:51.183Z,26.10
2018-08-08T08:49:21.465Z,26.10
2018-08-08T08:51:51.747Z,26.10
2018-08-08T08:54:21.369Z,26.20
2018-08-08T08:56:50.797Z,26.20
2018-08-08T08:59:20.245Z,26.10
2018-08-08T09:01:49.742Z,26.00
2018-08-08T09:04:19.649Z,26.00
2018-08-08T09:06:49.299Z,26.00
2018-08-08T09:09:18.887Z,26.00
2018-08-08T09:11:48.657Z,26.00
2018-08-08T09:14:18.819Z,26.00
2018-08-08T09:16:48.640Z,26.00
2018-08-08T09:19:18.533Z,26.00
2018-08-08T09:21:48.474Z,26.00
2018-08-08T09:24:19.004Z,26.00
2018-08-08T09:26:48.630Z,25.90
2018-08-08T09:29:18.084Z,25.90
2018-08-08T09:31:48.530Z,25.90
2018-08-08T09:34:18.260Z,25.80
2018-08-08T09:36:47.992Z,25.90
2018-08-08T09:39:17.504Z,25.90
2018-08-08T09:41:47.658Z,25.90
2018-08-08T09:44:17.878Z,25.90
2018-08-08T09:46:47.818Z,26.00
2018-08-08T09:49:17.608Z,26.10
2018-08-08T09:51:49.268Z,26.30
2018-08-08T09:54:18.792Z,26.40
2018-08-08T09:56:49.228Z,26.50
2018-08-08T09:59:18.916Z,26.60
2018-08-08T10:01:53.704Z,26.80
2018-08-08T10:04:29.158Z,26.90
2018-08-08T10:06:59.223Z,27.10
2018-08-08T10:09:28.828Z,27.30
2018-08-08T10:11:59.519Z,27.40
2018-08-08T10:14:29.187Z,27.60
2018-08-08T10:16:58.663Z,27.80
2018-08-08T10:19:28.872Z,28.00
2018-08-08T10:21:59.021Z,28.10
2018-08-08T10:24:28.701Z,28.30
2018-08-08T10:26:59.554Z,28.50
2018-08-08T10:29:30.287Z,28.70
2018-08-08T10:31:59.877Z,28.90
2018-08-08T10:34:29.646Z,29.10
2018-08-08T10:36:59.119Z,29.30
2018-08-08T10:39:29.242Z,29.50
2018-08-08T10:41:58.928Z,29.80
2018-08-08T10:44:28.913Z,30.00
2018-08-08T10:47:00.960Z,30.20
2018-08-08T10:49:30.665Z,30.50
2018-08-08T10:52:00.551Z,30.80
2018-08-08T10:54:33.158Z,31.00
2018-08-08T10:57:03.939Z,31.30
2018-08-08T10:59:33.595Z,31.50
2018-08-08T11:02:03.827Z,31.80
2018-08-08T11:04:33.677Z,32.10
2018-08-08T11:07:03.746Z,32.40
2018-08-08T11:09:33.480Z,32.70
2018-08-08T11:12:02.992Z,33.00
2018-08-08T11:14:32.754Z,33.30
2018-08-08T11:17:02.373Z,33.50
2018-08-08T11:19:31.984Z,33.60
2018-08-08T11:22:02.409Z,33.60
2018-08-08T11:24:32.336Z,33.60
2018-08-08T11:27:02.546Z,33.60
2018-08-08T11:29:32.740Z,33.60
2018-08-08T11:32:02.360Z,33.50
2018-08-08T11:34:32.453Z,33.40
2018-08-08T11:37:02.670Z,33.30
2018-08-08T11:39:32.517Z,33.10
2018-08-08T11:42:02.224Z,32.90
2018-08-08T11:44:31.628Z,32.70
2018-08-08T11:47:02.130Z,32.50
2018-08-08T11:49:32.318Z,32.30
2018-08-08T11:52:01.971Z,32.20
2018-08-08T11:54:31.525Z,32.00
2018-08-08T11:57:02.051Z,31.80
2018-08-08T11:59:31.666Z,31.80
2018-08-08T12:02:01.339Z,31.70
2018-08-08T12:04:31.509Z,31.70
2018-08-08T12:07:01.325Z,31.70
2018-08-08T12:09:31.208Z,31.80
2018-08-08T12:12:00.882Z,31.80
2018-08-08T12:14:30.700Z,32.00
2018-08-08T12:17:00.584Z,32.20
2018-08-08T12:19:30.137Z,32.50
2018-08-08T12:22:00.237Z,32.80
2018-08-08T12:26:54.972Z,33.50
2018-08-08T12:29:25.806Z,33.90
2018-08-08T12:31:55.298Z,34.10
2018-08-08T12:34:24.995Z,34.40
2018-08-08T12:36:55.081Z,34.70
2018-08-08T12:39:24.746Z,35.00
2018-08-08T12:41:54.387Z,35.20
2018-08-08T12:44:24.079Z,35.30
2018-08-08T12:46:54.698Z,35.50
2018-08-08T12:49:25.976Z,35.70
2018-08-08T12:51:56.272Z,35.90
2018-08-08T12:54:25.875Z,36.10
2018-08-08T12:56:55.403Z,36.40
2018-08-08T12:59:25.218Z,36.60
2018-08-08T13:01:55.072Z,36.80
2018-08-08T13:04:25.276Z,37.10
2018-08-08T13:06:55.927Z,37.40
2018-08-08T13:09:26.365Z,37.70
2018-08-08T13:11:55.880Z,37.90
2018-08-08T13:14:25.496Z,38.10
2018-08-08T13:16:54.977Z,38.10
2018-08-08T13:19:25.148Z,38.00
2018-08-08T13:21:54.744Z,37.80
2018-08-08T13:24:25.007Z,37.60
2018-08-08T13:26:54.574Z,37.60
2018-08-08T13:29:24.670Z,37.60
2018-08-08T13:31:54.914Z,37.60
2018-08-08T13:34:24.700Z,37.50
2018-08-08T13:36:54.310Z,37.60
2018-08-08T13:39:24.005Z,37.70
2018-08-08T13:41:53.937Z,37.80
2018-08-08T13:44:23.497Z,38.00
2018-08-08T13:46:53.250Z,38.10
2018-08-08T13:49:22.718Z,38.30
2018-08-08T13:51:52.264Z,38.40
2018-08-08T13:54:22.952Z,38.50
2018-08-08T13:56:53.889Z,38.60
2018-08-08T13:59:23.982Z,38.80
2018-08-08T14:01:54.320Z,39.00
2018-08-08T14:04:25.432Z,39.10
2018-08-08T14:06:55.074Z,39.10
2018-08-08T14:09:25.164Z,39.10
2018-08-08T14:11:55.602Z,39.00
2018-08-08T14:14:25.296Z,39.00
2018-08-08T14:16:55.569Z,39.00
2018-08-08T14:19:25.713Z,39.00
2018-08-08T14:21:55.157Z,39.10
2018-08-08T14:24:26.081Z,39.10
2018-08-08T14:26:56.593Z,39.10
2018-08-08T14:29:26.081Z,39.10
2018-08-08T14:31:56.207Z,39.20
2018-08-08T14:34:26.339Z,39.40
2018-08-08T14:36:56.196Z,39.50
2018-08-08T14:39:27.133Z,39.60
2018-08-08T14:41:59.341Z,39.70
2018-08-08T14:44:29.291Z,39.70
2018-08-08T14:47:02.808Z,39.80
2018-08-08T14:49:33.812Z,39.90
2018-08-08T14:52:03.358Z,39.90
2018-08-08T14:54:34.619Z,40.00
2018-08-08T14:57:06.224Z,40.10
2018-08-08T14:59:36.972Z,40.10
2018-08-08T15:02:06.828Z,40.10
2018-08-08T15:04:37.628Z,40.10
2018-08-08T15:10:18.200Z,40.10
2018-08-08T15:12:49.849Z,40.20
2018-08-08T15:15:19.603Z,40.40
2018-08-08T15:17:49.228Z,40.60
2018-08-08T15:20:19.478Z,40.70
2018-08-08T15:22:49.294Z,40.80
2018-08-08T15:25:18.904Z,40.90
2018-08-08T15:27:48.466Z,41.00
2018-08-08T15:30:18.290Z,41.00
2018-08-08T15:32:47.957Z,41.10
2018-08-08T15:35:17.872Z,41.40
2018-08-08T15:37:47.815Z,41.70
2018-08-08T15:40:17.238Z,42.10
2018-08-08T15:42:47.183Z,42.50
2018-08-08T15:45:18.394Z,42.90
2018-08-08T15:47:48.684Z,43.30
2018-08-08T15:50:18.330Z,43.70
2018-08-08T15:52:49.262Z,44.00
2018-08-08T15:55:18.983Z,44.00
2018-08-08T15:57:50.196Z,43.50
2018-08-08T16:00:20.067Z,42.70
2018-08-08T16:02:50.274Z,41.90
2018-08-08T16:05:19.871Z,41.10
2018-08-08T16:07:49.565Z,40.20
2018-08-08T16:10:19.063Z,39.50
2018-08-08T16:12:49.193Z,38.80
2018-08-08T16:15:18.959Z,38.30
2018-08-08T16:17:48.639Z,38.40
2018-08-08T16:20:19.465Z,38.80
2018-08-08T16:22:49.921Z,39.40
2018-08-08T16:25:22.105Z,39.80
2018-08-08T16:27:52.295Z,40.20
2018-08-08T16:30:21.907Z,40.40
2018-08-08T16:32:52.923Z,40.40
2018-08-08T16:35:23.654Z,40.20
2018-08-08T16:38:00.949Z,40.20
2018-08-08T16:40:36.463Z,40.20
2018-08-08T16:43:06.478Z,40.20
2018-08-08T16:45:36.688Z,40.00
2018-08-08T16:48:07.764Z,39.80
2018-08-08T16:50:38.493Z,39.50
2018-08-08T16:53:08.248Z,39.20
2018-08-08T16:55:38.621Z,38.90
2018-08-08T16:58:08.620Z,38.50
2018-08-08T17:00:38.453Z,38.10
2018-08-08T17:03:12.160Z,37.80
2018-08-08T17:05:42.191Z,37.50
2018-08-08T17:08:12.259Z,37.10
2018-08-08T17:10:42.051Z,36.80
2018-08-08T17:13:11.733Z,36.40
2018-08-08T17:15:41.467Z,36.10
2018-08-08T17:18:11.149Z,35.80
2018-08-08T17:20:41.639Z,35.50
2018-08-08T17:23:11.886Z,35.20
2018-08-08T17:25:41.543Z,34.90
2018-08-08T17:28:12.033Z,34.60
2018-08-08T17:30:43.140Z,34.40
2018-08-08T17:33:13.298Z,34.20
2018-08-08T17:35:44.493Z,33.90
2018-08-08T17:38:15.049Z,33.70
2018-08-08T17:40:45.086Z,33.50
2018-08-08T17:43:17.357Z,33.20
2018-08-08T17:45:52.216Z,33.00
2018-08-08T17:48:22.369Z,32.80
2018-08-08T17:50:53.128Z,32.60
2018-08-08T17:53:32.677Z,32.40
2018-08-08T17:56:03.072Z,32.30
2018-08-08T17:58:34.655Z,32.10
2018-08-08T18:01:05.200Z,31.90
2018-08-08T18:03:40.152Z,31.80
2018-08-08T18:06:15.234Z,31.60
2018-08-08T18:08:46.691Z,31.50
2018-08-08T18:11:17.152Z,31.30
2018-08-08T18:13:47.737Z,31.20
2018-08-08T18:16:17.920Z,31.00
2018-08-08T18:18:48.081Z,30.80
2018-08-08T18:21:26.377Z,30.70
2018-08-08T18:23:56.382Z,30.50
2018-08-08T18:26:26.277Z,30.30
2018-08-08T18:28:56.807Z,30.10
2018-08-08T18:31:26.699Z,29.90
2018-08-08T18:33:56.916Z,29.70
2018-08-08T18:36:28.205Z,29.50
2018-08-08T18:39:00.467Z,29.30
2018-08-08T18:41:31.436Z,29.10
2018-08-08T18:44:06.166Z,28.90
2018-08-08T18:46:36.806Z,28.60
2018-08-08T18:49:13.244Z,28.40
2018-08-08T18:51:46.155Z,28.20
2018-08-08T18:54:16.449Z,28.00
2018-08-08T18:56:47.472Z,27.80
2018-08-08T18:59:41.171Z,27.60
2018-08-08T19:02:45.659Z,27.40
2018-08-08T19:05:18.406Z,27.10
2018-08-08T19:07:49.686Z,27.00
2018-08-08T19:10:39.469Z,26.80
2018-08-08T19:13:09.830Z,26.60
2018-08-08T19:15:45.416Z,26.50
2018-08-08T19:18:16.010Z,26.40
2018-08-08T19:20:46.944Z,26.30
2018-08-08T19:23:16.645Z,26.20
2018-08-08T19:25:46.180Z,26.20
2018-08-08T19:28:16.537Z,26.10
2018-08-08T19:30:46.373Z,26.10
2018-08-08T19:33:16.097Z,26.00
2018-08-08T19:35:45.804Z,26.00
2018-08-08T19:38:16.846Z,25.90
2018-08-08T19:40:47.931Z,25.80
2018-08-08T19:43:19.859Z,25.70
2018-08-08T19:45:50.067Z,25.60
2018-08-08T19:48:20.360Z,25.50
2018-08-08T19:50:56.406Z,25.40
2018-08-08T19:53:27.843Z,25.30
2018-08-08T19:55:58.925Z,25.20
2018-08-08T19:58:29.633Z,25.10
2018-08-08T20:00:59.824Z,25.10
2018-08-08T20:03:30.383Z,25.00
2018-08-08T20:06:00.371Z,24.90
2018-08-08T20:08:30.669Z,24.80
2018-08-08T20:11:00.427Z,24.80
2018-08-08T20:13:30.127Z,24.70
2018-08-08T20:16:00.760Z,24.70
2018-08-08T20:18:30.563Z,24.70
2018-08-08T20:21:00.312Z,24.60
2018-08-08T20:23:30.965Z,24.60
2018-08-08T20:26:00.530Z,24.60
2018-08-08T20:28:30.127Z,24.50
2018-08-08T20:30:59.549Z,24.40
2018-08-08T20:33:29.569Z,24.30
2018-08-08T20:35:59.889Z,24.20
2018-08-08T20:38:29.620Z,24.10
2018-08-08T20:40:59.149Z,24.00
2018-08-08T20:43:28.734Z,24.00
2018-08-08T20:45:58.567Z,23.90
2018-08-08T20:48:28.321Z,23.80
2018-08-08T20:50:59.093Z,23.80
2018-08-08T20:53:28.565Z,23.70
2018-08-08T20:55:59.571Z,23.70
2018-08-08T20:58:29.160Z,23.60
2018-08-08T21:00:59.401Z,23.60
2018-08-08T21:03:28.993Z,23.50
2018-08-08T21:05:59.112Z,23.40
2018-08-08T21:08:28.586Z,23.40
2018-08-08T21:10:58.216Z,23.30
2018-08-08T21:13:28.552Z,23.20
2018-08-08T21:15:58.133Z,23.10
2018-08-08T21:18:27.813Z,23.10
2018-08-08T21:20:57.416Z,23.00
2018-08-08T21:23:26.918Z,22.90
2018-08-08T21:25:56.744Z,22.80
2018-08-08T21:28:26.262Z,22.80
2018-08-08T21:30:57.382Z,22.70
2018-08-08T21:33:27.067Z,22.70
2018-08-08T21:35:56.739Z,22.60
2018-08-08T21:38:26.549Z,22.50
2018-08-08T21:40:56.677Z,22.40
2018-08-08T21:43:26.527Z,22.40
2018-08-08T21:45:56.113Z,22.40
2018-08-08T21:48:26.113Z,22.30
2018-08-08T21:50:55.633Z,22.30
2018-08-08T21:54:40.377Z,22.30
2018-08-08T21:58:26.505Z,22.20
2018-08-08T22:01:13.231Z,22.10
2018-08-08T22:03:59.646Z,22.00
2018-08-08T22:06:46.194Z,22.00
2018-08-08T22:09:32.738Z,22.00
2018-08-08T22:12:19.440Z,21.90
2018-08-08T22:16:07.384Z,21.90
2018-08-08T22:19:24.550Z,21.80
2018-08-08T22:21:54.836Z,21.70
2018-08-08T22:24:26.070Z,21.60
2018-08-08T22:26:56.416Z,21.60
2018-08-08T22:29:26.331Z,21.60
2018-08-08T22:31:55.928Z,21.60
2018-08-08T22:34:26.248Z,21.60
2018-08-08T22:36:56.585Z,21.50
2018-08-08T22:39:26.204Z,21.50
2018-08-08T22:41:55.999Z,21.50
2018-08-08T22:44:25.624Z,21.50
2018-08-08T22:46:55.809Z,21.40
2018-08-08T22:49:25.533Z,21.40
2018-08-08T22:51:56.071Z,21.30
2018-08-08T22:54:26.494Z,21.30
2018-08-08T22:56:56.181Z,21.20
2018-08-08T22:59:25.789Z,21.10
2018-08-08T23:01:55.381Z,21.10
2018-08-08T23:04:24.959Z,21.00
2018-08-08T23:06:54.617Z,20.90
2018-08-08T23:09:24.279Z,20.90
2018-08-08T23:11:53.925Z,20.90
2018-08-08T23:14:24.059Z,20.80
2018-08-08T23:16:53.811Z,20.80
2018-08-08T23:19:23.436Z,20.70
2018-08-08T23:21:53.306Z,20.70
2018-08-08T23:24:22.920Z,20.60
2018-08-08T23:26:52.481Z,20.50
2018-08-08T23:29:22.066Z,20.50
2018-08-08T23:31:51.614Z,20.40
2018-08-08T23:34:21.222Z,20.40
2018-08-08T23:36:51.048Z,20.30
2018-08-08T23:39:20.610Z,20.30
2018-08-08T23:41:50.120Z,20.20
2018-08-08T23:44:19.735Z,20.20
2018-08-08T23:46:49.379Z,20.20
2018-08-08T23:49:19.025Z,20.10
2018-08-08T23:51:48.399Z,20.10
2018-08-08T23:54:18.095Z,20.00
2018-08-08T23:56:47.722Z,20.00
2018-08-08T23:59:17.286Z,20.00
